"WATCHING THE WEATHER TO PROTECT LIFE AND PROPERTY"



Aviation
Satellite (InfraRed)


TNCA 292300Z 08023G33KT 9999 FEW020 29/24 Q1009 NOSIG
TNCB 292255Z 11015KT 080V150 CAVOK 28/23 Q1011
TNCC 292300Z 10016KT 9999 FEW020 28/24 Q1011 NOSIG